sensor_id;sensor_type;location;lat;lon;timestamp;temperature;humidity
18779;DHT22;9518;51.720;14.384;2023-07-16T00:00:36;24.30;55.80
18779;DHT22;9518;51.720;14.384;2023-07-16T00:03:03;24.10;55.50
18779;DHT22;9518;51.720;14.384;2023-07-16T00:05:30;24.00;55.70
18779;DHT22;9518;51.720;14.384;2023-07-16T00:07:57;23.80;55.90
18779;DHT22;9518;51.720;14.384;2023-07-16T00:10:24;23.60;57.70
18779;DHT22;9518;51.720;14.384;2023-07-16T00:12:51;23.50;57.50
18779;DHT22;9518;51.720;14.384;2023-07-16T00:15:18;23.30;57.10
18779;DHT22;9518;51.720;14.384;2023-07-16T00:17:47;23.30;57.90
18779;DHT22;9518;51.720;14.384;2023-07-16T00:20:14;23.20;58.30
18779;DHT22;9518;51.720;14.384;2023-07-16T00:22:41;23.10;58.80
18779;DHT22;9518;51.720;14.384;2023-07-16T00:25:08;23.10;60.40
18779;DHT22;9518;51.720;14.384;2023-07-16T00:27:35;23.00;60.60
18779;DHT22;9518;51.720;14.384;2023-07-16T00:30:03;23.00;60.60
18779;DHT22;9518;51.720;14.384;2023-07-16T00:32:30;22.90;61.10
18779;DHT22;9518;51.720;14.384;2023-07-16T00:34:58;22.90;61.50
18779;DHT22;9518;51.720;14.384;2023-07-16T00:37:25;22.80;60.90
18779;DHT22;9518;51.720;14.384;2023-07-16T00:39:52;22.70;61.10
18779;DHT22;9518;51.720;14.384;2023-07-16T00:42:19;22.70;61.80
18779;DHT22;9518;51.720;14.384;2023-07-16T00:44:46;22.70;62.00
18779;DHT22;9518;51.720;14.384;2023-07-16T00:47:13;22.70;61.80
18779;DHT22;9518;51.720;14.384;2023-07-16T00:49:41;22.70;62.10
18779;DHT22;9518;51.720;14.384;2023-07-16T00:52:14;22.70;62.90
18779;DHT22;9518;51.720;14.384;2023-07-16T00:54:43;22.70;62.80
18779;DHT22;9518;51.720;14.384;2023-07-16T00:57:10;22.80;63.50
18779;DHT22;9518;51.720;14.384;2023-07-16T00:59:37;22.90;63.80
18779;DHT22;9518;51.720;14.384;2023-07-16T01:02:04;22.80;64.70
18779;DHT22;9518;51.720;14.384;2023-07-16T01:04:32;23.10;64.70
18779;DHT22;9518;51.720;14.384;2023-07-16T01:07:01;23.40;63.40
18779;DHT22;9518;51.720;14.384;2023-07-16T01:09:33;23.70;62.60
18779;DHT22;9518;51.720;14.384;2023-07-16T01:12:03;23.80;63.00
18779;DHT22;9518;51.720;14.384;2023-07-16T01:14:32;23.90;64.20
18779;DHT22;9518;51.720;14.384;2023-07-16T01:17:03;23.90;64.30
18779;DHT22;9518;51.720;14.384;2023-07-16T01:19:29;23.90;65.50
18779;DHT22;9518;51.720;14.384;2023-07-16T01:22:16;23.90;65.50
18779;DHT22;9518;51.720;14.384;2023-07-16T01:25:09;23.90;65.80
18779;DHT22;9518;51.720;14.384;2023-07-16T01:27:56;23.90;65.80
18779;DHT22;9518;51.720;14.384;2023-07-16T01:30:28;24.00;65.40
18779;DHT22;9518;51.720;14.384;2023-07-16T01:32:55;24.10;64.80
18779;DHT22;9518;51.720;14.384;2023-07-16T01:35:23;24.20;64.70
18779;DHT22;9518;51.720;14.384;2023-07-16T01:37:50;24.20;64.10
18779;DHT22;9518;51.720;14.384;2023-07-16T01:40:18;24.10;64.70
18779;DHT22;9518;51.720;14.384;2023-07-16T01:42:45;24.10;65.00
18779;DHT22;9518;51.720;14.384;2023-07-16T01:45:12;24.10;65.10
18779;DHT22;9518;51.720;14.384;2023-07-16T01:47:59;24.10;65.30
18779;DHT22;9518;51.720;14.384;2023-07-16T01:50:29;24.10;65.50
18779;DHT22;9518;51.720;14.384;2023-07-16T01:52:56;24.10;64.90
18779;DHT22;9518;51.720;14.384;2023-07-16T01:55:23;24.10;58.70
18779;DHT22;9518;51.720;14.384;2023-07-16T01:57:50;24.10;1.00
18779;DHT22;9518;51.720;14.384;2023-07-16T02:00:18;24.10;1.00
18779;DHT22;9518;51.720;14.384;2023-07-16T02:02:47;24.10;1.00
18779;DHT22;9518;51.720;14.384;2023-07-16T02:05:14;24.00;1.00
18779;DHT22;9518;51.720;14.384;2023-07-16T02:07:41;24.00;1.00
18779;DHT22;9518;51.720;14.384;2023-07-16T02:10:09;24.00;1.00
18779;DHT22;9518;51.720;14.384;2023-07-16T02:12:36;24.00;1.00
18779;DHT22;9518;51.720;14.384;2023-07-16T02:15:03;24.00;1.00
18779;DHT22;9518;51.720;14.384;2023-07-16T02:17:30;24.00;1.00
18779;DHT22;9518;51.720;14.384;2023-07-16T02:19:58;23.90;1.00
18779;DHT22;9518;51.720;14.384;2023-07-16T02:22:25;23.90;1.00
18779;DHT22;9518;51.720;14.384;2023-07-16T02:24:52;23.90;1.00
18779;DHT22;9518;51.720;14.384;2023-07-16T02:27:19;23.80;64.30
18779;DHT22;9518;51.720;14.384;2023-07-16T02:29:46;23.80;65.00
18779;DHT22;9518;51.720;14.384;2023-07-16T02:32:13;23.80;65.10
18779;DHT22;9518;51.720;14.384;2023-07-16T02:34:40;23.70;64.90
18779;DHT22;9518;51.720;14.384;2023-07-16T02:37:11;23.80;65.90
18779;DHT22;9518;51.720;14.384;2023-07-16T02:39:38;23.80;64.90
18779;DHT22;9518;51.720;14.384;2023-07-16T02:42:06;23.80;65.20
18779;DHT22;9518;51.720;14.384;2023-07-16T02:44:33;23.70;65.40
18779;DHT22;9518;51.720;14.384;2023-07-16T02:47:04;23.70;65.80
18779;DHT22;9518;51.720;14.384;2023-07-16T02:49:31;23.60;65.90
18779;DHT22;9518;51.720;14.384;2023-07-16T02:51:58;23.60;65.90
18779;DHT22;9518;51.720;14.384;2023-07-16T02:54:26;23.60;66.30
18779;DHT22;9518;51.720;14.384;2023-07-16T02:56:53;23.50;66.70
18779;DHT22;9518;51.720;14.384;2023-07-16T02:59:20;23.40;67.10
18779;DHT22;9518;51.720;14.384;2023-07-16T03:04:22;23.40;67.00
18779;DHT22;9518;51.720;14.384;2023-07-16T03:06:50;23.40;66.40
18779;DHT22;9518;51.720;14.384;2023-07-16T03:09:17;23.50;66.00
18779;DHT22;9518;51.720;14.384;2023-07-16T03:11:45;23.50;65.80
18779;DHT22;9518;51.720;14.384;2023-07-16T03:14:12;23.50;65.50
18779;DHT22;9518;51.720;14.384;2023-07-16T03:16:39;23.60;65.30
18779;DHT22;9518;51.720;14.384;2023-07-16T03:19:06;23.60;65.40
18779;DHT22;9518;51.720;14.384;2023-07-16T03:21:33;23.50;65.30
18779;DHT22;9518;51.720;14.384;2023-07-16T03:24:00;23.60;65.60
18779;DHT22;9518;51.720;14.384;2023-07-16T03:26:27;23.50;66.20
18779;DHT22;9518;51.720;14.384;2023-07-16T03:28:56;23.40;67.30
18779;DHT22;9518;51.720;14.384;2023-07-16T03:31:22;23.30;67.50
18779;DHT22;9518;51.720;14.384;2023-07-16T03:33:49;23.30;67.50
18779;DHT22;9518;51.720;14.384;2023-07-16T03:36:18;23.30;67.60
18779;DHT22;9518;51.720;14.384;2023-07-16T03:38:45;23.20;1.00
18779;DHT22;9518;51.720;14.384;2023-07-16T03:41:12;23.20;1.00
18779;DHT22;9518;51.720;14.384;2023-07-16T03:43:38;22.90;1.00
18779;DHT22;9518;51.720;14.384;2023-07-16T03:46:07;22.60;99.90
18779;DHT22;9518;51.720;14.384;2023-07-16T03:48:34;22.00;1.00
18779;DHT22;9518;51.720;14.384;2023-07-16T03:51:01;21.50;1.00
18779;DHT22;9518;51.720;14.384;2023-07-16T03:53:28;20.90;1.00
18779;DHT22;9518;51.720;14.384;2023-07-16T03:55:55;20.40;1.00
18779;DHT22;9518;51.720;14.384;2023-07-16T03:58:22;20.00;99.90
18779;DHT22;9518;51.720;14.384;2023-07-16T04:00:49;19.70;99.90
18779;DHT22;9518;51.720;14.384;2023-07-16T04:03:17;19.50;99.90
18779;DHT22;9518;51.720;14.384;2023-07-16T04:05:44;19.40;99.90
18779;DHT22;9518;51.720;14.384;2023-07-16T04:08:11;19.30;99.90
18779;DHT22;9518;51.720;14.384;2023-07-16T04:10:38;19.20;99.90
18779;DHT22;9518;51.720;14.384;2023-07-16T04:13:05;19.20;99.90
18779;DHT22;9518;51.720;14.384;2023-07-16T04:15:32;19.20;99.90
18779;DHT22;9518;51.720;14.384;2023-07-16T04:17:59;19.10;99.90
18779;DHT22;9518;51.720;14.384;2023-07-16T04:20:29;19.10;99.90
18779;DHT22;9518;51.720;14.384;2023-07-16T04:22:56;19.10;99.90
18779;DHT22;9518;51.720;14.384;2023-07-16T04:25:23;19.10;99.90
18779;DHT22;9518;51.720;14.384;2023-07-16T04:27:50;19.10;99.90
18779;DHT22;9518;51.720;14.384;2023-07-16T04:30:17;19.10;99.90
18779;DHT22;9518;51.720;14.384;2023-07-16T04:32:43;19.10;99.90
18779;DHT22;9518;51.720;14.384;2023-07-16T04:35:10;19.10;99.90
18779;DHT22;9518;51.720;14.384;2023-07-16T04:37:39;19.10;99.90
18779;DHT22;9518;51.720;14.384;2023-07-16T04:40:07;19.10;99.90
18779;DHT22;9518;51.720;14.384;2023-07-16T04:42:34;19.10;99.90
18779;DHT22;9518;51.720;14.384;2023-07-16T04:45:01;19.10;99.90
18779;DHT22;9518;51.720;14.384;2023-07-16T04:47:28;19.10;99.90
18779;DHT22;9518;51.720;14.384;2023-07-16T04:49:55;19.10;99.90
18779;DHT22;9518;51.720;14.384;2023-07-16T04:52:22;19.10;99.90
18779;DHT22;9518;51.720;14.384;2023-07-16T04:54:50;19.10;99.90
18779;DHT22;9518;51.720;14.384;2023-07-16T04:57:17;19.20;99.90
18779;DHT22;9518;51.720;14.384;2023-07-16T04:59:44;19.30;99.90
18779;DHT22;9518;51.720;14.384;2023-07-16T05:02:11;19.30;99.90
18779;DHT22;9518;51.720;14.384;2023-07-16T05:04:39;19.30;99.90
18779;DHT22;9518;51.720;14.384;2023-07-16T05:07:06;19.30;99.90
18779;DHT22;9518;51.720;14.384;2023-07-16T05:09:33;19.40;99.90
18779;DHT22;9518;51.720;14.384;2023-07-16T05:12:02;19.40;99.90
18779;DHT22;9518;51.720;14.384;2023-07-16T05:14:29;19.50;99.90
18779;DHT22;9518;51.720;14.384;2023-07-16T05:16:56;19.60;99.90
18779;DHT22;9518;51.720;14.384;2023-07-16T05:19:23;19.80;99.90
18779;DHT22;9518;51.720;14.384;2023-07-16T05:21:50;19.90;99.90
18779;DHT22;9518;51.720;14.384;2023-07-16T05:24:17;20.00;99.90
18779;DHT22;9518;51.720;14.384;2023-07-16T05:26:44;20.00;99.90
18779;DHT22;9518;51.720;14.384;2023-07-16T05:29:12;20.10;99.90
18779;DHT22;9518;51.720;14.384;2023-07-16T05:31:39;20.10;99.90
18779;DHT22;9518;51.720;14.384;2023-07-16T05:34:06;20.20;99.90
18779;DHT22;9518;51.720;14.384;2023-07-16T05:36:33;20.30;99.90
18779;DHT22;9518;51.720;14.384;2023-07-16T05:39:00;20.30;99.90
18779;DHT22;9518;51.720;14.384;2023-07-16T05:41:27;20.30;99.90
18779;DHT22;9518;51.720;14.384;2023-07-16T05:43:54;20.30;99.90
18779;DHT22;9518;51.720;14.384;2023-07-16T05:46:22;20.30;99.90
18779;DHT22;9518;51.720;14.384;2023-07-16T05:48:49;20.30;99.90
18779;DHT22;9518;51.720;14.384;2023-07-16T05:51:16;20.30;99.90
18779;DHT22;9518;51.720;14.384;2023-07-16T05:53:43;20.20;99.90
18779;DHT22;9518;51.720;14.384;2023-07-16T05:56:10;20.20;99.90
18779;DHT22;9518;51.720;14.384;2023-07-16T05:58:37;20.30;99.90
18779;DHT22;9518;51.720;14.384;2023-07-16T06:01:04;20.20;99.90
18779;DHT22;9518;51.720;14.384;2023-07-16T06:03:33;20.20;99.90
18779;DHT22;9518;51.720;14.384;2023-07-16T06:06:00;20.20;99.90
18779;DHT22;9518;51.720;14.384;2023-07-16T06:08:27;20.20;99.90
18779;DHT22;9518;51.720;14.384;2023-07-16T06:10:54;20.20;99.90
18779;DHT22;9518;51.720;14.384;2023-07-16T06:13:20;20.20;99.90
18779;DHT22;9518;51.720;14.384;2023-07-16T06:15:47;20.20;99.90
18779;DHT22;9518;51.720;14.384;2023-07-16T06:18:14;20.20;99.90
18779;DHT22;9518;51.720;14.384;2023-07-16T06:20:44;20.30;99.90
18779;DHT22;9518;51.720;14.384;2023-07-16T06:23:11;20.40;99.90
18779;DHT22;9518;51.720;14.384;2023-07-16T06:25:38;20.40;99.90
18779;DHT22;9518;51.720;14.384;2023-07-16T06:28:10;20.40;99.90
18779;DHT22;9518;51.720;14.384;2023-07-16T06:30:37;20.50;99.90
18779;DHT22;9518;51.720;14.384;2023-07-16T06:33:04;20.50;99.90
18779;DHT22;9518;51.720;14.384;2023-07-16T06:35:31;20.50;99.90
18779;DHT22;9518;51.720;14.384;2023-07-16T06:38:00;20.60;99.90
18779;DHT22;9518;51.720;14.384;2023-07-16T06:40:28;20.70;99.90
18779;DHT22;9518;51.720;14.384;2023-07-16T06:42:55;20.90;99.90
18779;DHT22;9518;51.720;14.384;2023-07-16T06:45:22;21.00;99.90
18779;DHT22;9518;51.720;14.384;2023-07-16T06:47:49;21.00;99.90
18779;DHT22;9518;51.720;14.384;2023-07-16T06:50:16;21.00;99.90
18779;DHT22;9518;51.720;14.384;2023-07-16T06:52:43;20.90;99.90
18779;DHT22;9518;51.720;14.384;2023-07-16T06:55:12;20.90;99.90
18779;DHT22;9518;51.720;14.384;2023-07-16T06:57:39;20.80;99.90
18779;DHT22;9518;51.720;14.384;2023-07-16T07:00:07;20.70;99.90
18779;DHT22;9518;51.720;14.384;2023-07-16T07:02:36;20.80;99.90
18779;DHT22;9518;51.720;14.384;2023-07-16T07:05:03;21.00;99.90
18779;DHT22;9518;51.720;14.384;2023-07-16T07:07:31;21.20;99.90
18779;DHT22;9518;51.720;14.384;2023-07-16T07:09:58;21.40;99.90
18779;DHT22;9518;51.720;14.384;2023-07-16T07:12:26;21.80;99.90
18779;DHT22;9518;51.720;14.384;2023-07-16T07:14:53;22.30;99.90
18779;DHT22;9518;51.720;14.384;2023-07-16T07:17:20;22.80;99.90
18779;DHT22;9518;51.720;14.384;2023-07-16T07:19:47;23.20;99.90
18779;DHT22;9518;51.720;14.384;2023-07-16T07:22:14;23.30;99.90
18779;DHT22;9518;51.720;14.384;2023-07-16T07:24:41;23.20;1.00
18779;DHT22;9518;51.720;14.384;2023-07-16T07:27:08;23.40;1.00
18779;DHT22;9518;51.720;14.384;2023-07-16T07:29:36;23.50;1.00
18779;DHT22;9518;51.720;14.384;2023-07-16T07:32:04;23.50;99.90
18779;DHT22;9518;51.720;14.384;2023-07-16T07:34:31;23.60;99.90
18779;DHT22;9518;51.720;14.384;2023-07-16T07:36:58;23.60;1.00
18779;DHT22;9518;51.720;14.384;2023-07-16T07:39:25;23.40;99.90
18779;DHT22;9518;51.720;14.384;2023-07-16T07:41:52;23.30;99.90
18779;DHT22;9518;51.720;14.384;2023-07-16T07:44:19;23.00;99.90
18779;DHT22;9518;51.720;14.384;2023-07-16T07:46:47;22.80;1.00
18779;DHT22;9518;51.720;14.384;2023-07-16T07:49:14;22.80;1.00
18779;DHT22;9518;51.720;14.384;2023-07-16T07:51:41;23.00;1.00
18779;DHT22;9518;51.720;14.384;2023-07-16T07:54:08;23.30;1.00
18779;DHT22;9518;51.720;14.384;2023-07-16T07:56:34;23.70;1.00
18779;DHT22;9518;51.720;14.384;2023-07-16T07:59:01;23.90;99.90
18779;DHT22;9518;51.720;14.384;2023-07-16T08:01:28;24.20;99.90
18779;DHT22;9518;51.720;14.384;2023-07-16T08:03:57;24.50;1.00
18779;DHT22;9518;51.720;14.384;2023-07-16T08:06:24;24.80;1.00
18779;DHT22;9518;51.720;14.384;2023-07-16T08:08:51;24.80;1.00
18779;DHT22;9518;51.720;14.384;2023-07-16T08:11:18;25.00;1.00
18779;DHT22;9518;51.720;14.384;2023-07-16T08:13:45;25.20;1.00
18779;DHT22;9518;51.720;14.384;2023-07-16T08:16:13;25.20;99.90
18779;DHT22;9518;51.720;14.384;2023-07-16T08:18:40;25.20;48.10
18779;DHT22;9518;51.720;14.384;2023-07-16T08:21:08;25.40;78.80
18779;DHT22;9518;51.720;14.384;2023-07-16T08:23:35;25.80;35.60
18779;DHT22;9518;51.720;14.384;2023-07-16T08:26:02;26.30;1.00
18779;DHT22;9518;51.720;14.384;2023-07-16T08:28:29;26.50;1.00
18779;DHT22;9518;51.720;14.384;2023-07-16T08:30:56;26.50;1.00
18779;DHT22;9518;51.720;14.384;2023-07-16T08:33:23;26.10;1.00
18779;DHT22;9518;51.720;14.384;2023-07-16T08:35:50;26.10;1.00
18779;DHT22;9518;51.720;14.384;2023-07-16T08:38:18;26.30;1.00
18779;DHT22;9518;51.720;14.384;2023-07-16T08:40:47;26.70;1.00
18779;DHT22;9518;51.720;14.384;2023-07-16T08:43:15;27.10;1.00
18779;DHT22;9518;51.720;14.384;2023-07-16T08:45:44;26.90;1.00
18779;DHT22;9518;51.720;14.384;2023-07-16T08:48:12;27.40;1.00
18779;DHT22;9518;51.720;14.384;2023-07-16T08:50:42;27.50;1.00
18779;DHT22;9518;51.720;14.384;2023-07-16T08:53:09;27.10;1.00
18779;DHT22;9518;51.720;14.384;2023-07-16T08:55:37;26.80;1.00
18779;DHT22;9518;51.720;14.384;2023-07-16T08:58:05;26.40;1.00
18779;DHT22;9518;51.720;14.384;2023-07-16T09:00:32;26.20;1.00
18779;DHT22;9518;51.720;14.384;2023-07-16T09:03:00;26.30;1.00
18779;DHT22;9518;51.720;14.384;2023-07-16T09:05:29;26.40;1.00
18779;DHT22;9518;51.720;14.384;2023-07-16T09:07:56;26.80;1.00
18779;DHT22;9518;51.720;14.384;2023-07-16T09:10:23;27.20;1.00
18779;DHT22;9518;51.720;14.384;2023-07-16T09:12:52;27.70;1.00
18779;DHT22;9518;51.720;14.384;2023-07-16T09:15:19;27.70;1.00
18779;DHT22;9518;51.720;14.384;2023-07-16T09:17:47;27.90;1.00
18779;DHT22;9518;51.720;14.384;2023-07-16T09:20:15;28.10;1.00
18779;DHT22;9518;51.720;14.384;2023-07-16T09:22:42;28.30;1.00
18779;DHT22;9518;51.720;14.384;2023-07-16T09:25:09;27.90;1.00
18779;DHT22;9518;51.720;14.384;2023-07-16T09:27:37;27.70;1.00
18779;DHT22;9518;51.720;14.384;2023-07-16T09:30:07;27.80;1.00
18779;DHT22;9518;51.720;14.384;2023-07-16T09:32:41;28.00;1.00
18779;DHT22;9518;51.720;14.384;2023-07-16T09:35:10;27.90;1.00
18779;DHT22;9518;51.720;14.384;2023-07-16T09:37:38;28.10;1.00
18779;DHT22;9518;51.720;14.384;2023-07-16T09:40:07;28.20;1.00
18779;DHT22;9518;51.720;14.384;2023-07-16T09:42:37;28.30;1.00
18779;DHT22;9518;51.720;14.384;2023-07-16T09:45:08;28.80;1.00
18779;DHT22;9518;51.720;14.384;2023-07-16T09:47:35;29.00;1.00
18779;DHT22;9518;51.720;14.384;2023-07-16T09:50:03;28.70;1.00
18779;DHT22;9518;51.720;14.384;2023-07-16T09:52:32;28.80;1.00
18779;DHT22;9518;51.720;14.384;2023-07-16T09:55:01;28.20;1.00
18779;DHT22;9518;51.720;14.384;2023-07-16T09:57:34;27.60;1.00
18779;DHT22;9518;51.720;14.384;2023-07-16T10:00:03;27.80;1.00
18779;DHT22;9518;51.720;14.384;2023-07-16T10:02:39;27.80;1.00
18779;DHT22;9518;51.720;14.384;2023-07-16T10:05:13;27.60;1.00
18779;DHT22;9518;51.720;14.384;2023-07-16T10:07:41;27.80;1.00
18779;DHT22;9518;51.720;14.384;2023-07-16T10:10:09;28.40;1.00
18779;DHT22;9518;51.720;14.384;2023-07-16T10:12:38;28.60;1.00
18779;DHT22;9518;51.720;14.384;2023-07-16T10:15:05;28.90;1.00
18779;DHT22;9518;51.720;14.384;2023-07-16T10:17:33;29.10;1.00
18779;DHT22;9518;51.720;14.384;2023-07-16T10:20:06;29.50;1.00
18779;DHT22;9518;51.720;14.384;2023-07-16T10:22:35;29.70;1.00
18779;DHT22;9518;51.720;14.384;2023-07-16T10:25:08;30.20;1.00
18779;DHT22;9518;51.720;14.384;2023-07-16T10:27:36;30.50;1.00
18779;DHT22;9518;51.720;14.384;2023-07-16T10:30:05;30.80;1.00
18779;DHT22;9518;51.720;14.384;2023-07-16T10:32:33;31.10;1.00
18779;DHT22;9518;51.720;14.384;2023-07-16T10:35:03;30.80;1.00
18779;DHT22;9518;51.720;14.384;2023-07-16T10:37:31;31.10;1.00
18779;DHT22;9518;51.720;14.384;2023-07-16T10:39:59;31.20;1.00
18779;DHT22;9518;51.720;14.384;2023-07-16T10:42:27;30.50;1.00
18779;DHT22;9518;51.720;14.384;2023-07-16T10:44:59;29.80;1.00
18779;DHT22;9518;51.720;14.384;2023-07-16T10:47:32;29.20;1.00
18779;DHT22;9518;51.720;14.384;2023-07-16T10:50:02;29.20;1.00
18779;DHT22;9518;51.720;14.384;2023-07-16T10:52:30;30.10;1.00
18779;DHT22;9518;51.720;14.384;2023-07-16T10:54:57;31.00;1.00
18779;DHT22;9518;51.720;14.384;2023-07-16T10:57:26;30.80;1.00
18779;DHT22;9518;51.720;14.384;2023-07-16T10:59:56;31.00;1.00
18779;DHT22;9518;51.720;14.384;2023-07-16T11:02:25;31.30;1.00
18779;DHT22;9518;51.720;14.384;2023-07-16T11:04:52;30.70;1.00
18779;DHT22;9518;51.720;14.384;2023-07-16T11:07:22;30.90;1.00
18779;DHT22;9518;51.720;14.384;2023-07-16T11:09:50;31.20;1.00
18779;DHT22;9518;51.720;14.384;2023-07-16T11:12:19;31.50;1.00
18779;DHT22;9518;51.720;14.384;2023-07-16T11:14:48;30.90;1.00
18779;DHT22;9518;51.720;14.384;2023-07-16T11:17:16;29.80;1.00
18779;DHT22;9518;51.720;14.384;2023-07-16T11:19:45;29.50;1.00
18779;DHT22;9518;51.720;14.384;2023-07-16T11:22:13;29.70;1.00
18779;DHT22;9518;51.720;14.384;2023-07-16T11:24:44;29.70;1.00
18779;DHT22;9518;51.720;14.384;2023-07-16T11:27:16;29.20;1.00
18779;DHT22;9518;51.720;14.384;2023-07-16T11:29:47;29.80;1.00
18779;DHT22;9518;51.720;14.384;2023-07-16T11:32:25;29.80;1.00
18779;DHT22;9518;51.720;14.384;2023-07-16T11:34:54;29.00;1.00
18779;DHT22;9518;51.720;14.384;2023-07-16T11:37:21;29.20;1.00
18779;DHT22;9518;51.720;14.384;2023-07-16T11:39:49;29.70;1.00
18779;DHT22;9518;51.720;14.384;2023-07-16T11:42:23;30.10;1.00
18779;DHT22;9518;51.720;14.384;2023-07-16T11:44:51;30.20;1.00
18779;DHT22;9518;51.720;14.384;2023-07-16T11:47:18;31.10;1.00
18779;DHT22;9518;51.720;14.384;2023-07-16T11:49:45;31.60;1.00
18779;DHT22;9518;51.720;14.384;2023-07-16T11:52:12;31.80;1.00
18779;DHT22;9518;51.720;14.384;2023-07-16T11:54:39;31.60;1.00
18779;DHT22;9518;51.720;14.384;2023-07-16T11:57:08;31.90;1.00
18779;DHT22;9518;51.720;14.384;2023-07-16T11:59:35;31.90;1.00
18779;DHT22;9518;51.720;14.384;2023-07-16T12:02:03;31.90;1.00
18779;DHT22;9518;51.720;14.384;2023-07-16T12:04:30;32.50;1.00
18779;DHT22;9518;51.720;14.384;2023-07-16T12:06:57;33.30;1.00
18779;DHT22;9518;51.720;14.384;2023-07-16T12:09:25;33.10;1.00
18779;DHT22;9518;51.720;14.384;2023-07-16T12:11:52;32.90;1.00
18779;DHT22;9518;51.720;14.384;2023-07-16T12:14:20;32.80;1.00
18779;DHT22;9518;51.720;14.384;2023-07-16T12:16:48;32.70;1.00
18779;DHT22;9518;51.720;14.384;2023-07-16T12:19:15;32.30;1.00
18779;DHT22;9518;51.720;14.384;2023-07-16T12:21:42;32.40;1.00
18779;DHT22;9518;51.720;14.384;2023-07-16T12:24:09;32.10;1.00
18779;DHT22;9518;51.720;14.384;2023-07-16T12:26:36;31.90;1.00
18779;DHT22;9518;51.720;14.384;2023-07-16T12:29:04;32.60;1.00
18779;DHT22;9518;51.720;14.384;2023-07-16T12:31:32;33.20;1.00
18779;DHT22;9518;51.720;14.384;2023-07-16T12:34:00;32.80;1.00
18779;DHT22;9518;51.720;14.384;2023-07-16T12:36:28;32.40;1.00
18779;DHT22;9518;51.720;14.384;2023-07-16T12:38:55;32.50;1.00
18779;DHT22;9518;51.720;14.384;2023-07-16T12:41:22;31.90;1.00
18779;DHT22;9518;51.720;14.384;2023-07-16T12:43:50;31.20;1.00
18779;DHT22;9518;51.720;14.384;2023-07-16T12:46:17;32.00;1.00
18779;DHT22;9518;51.720;14.384;2023-07-16T12:48:46;31.90;1.00
18779;DHT22;9518;51.720;14.384;2023-07-16T12:51:13;31.50;1.00
18779;DHT22;9518;51.720;14.384;2023-07-16T12:53:40;31.60;1.00
18779;DHT22;9518;51.720;14.384;2023-07-16T12:56:09;31.40;1.00
18779;DHT22;9518;51.720;14.384;2023-07-16T12:58:36;32.10;1.00
18779;DHT22;9518;51.720;14.384;2023-07-16T13:01:03;33.10;1.00
18779;DHT22;9518;51.720;14.384;2023-07-16T13:03:30;34.10;1.00
18779;DHT22;9518;51.720;14.384;2023-07-16T13:05:59;33.60;1.00
18779;DHT22;9518;51.720;14.384;2023-07-16T13:08:26;33.30;1.00
18779;DHT22;9518;51.720;14.384;2023-07-16T13:10:53;32.90;1.00
18779;DHT22;9518;51.720;14.384;2023-07-16T13:13:20;33.10;1.00
18779;DHT22;9518;51.720;14.384;2023-07-16T13:15:47;33.70;1.00
18779;DHT22;9518;51.720;14.384;2023-07-16T13:18:14;34.50;1.00
18779;DHT22;9518;51.720;14.384;2023-07-16T13:20:42;35.00;1.00
18779;DHT22;9518;51.720;14.384;2023-07-16T13:23:11;35.70;1.00
18779;DHT22;9518;51.720;14.384;2023-07-16T13:25:39;36.00;1.00
18779;DHT22;9518;51.720;14.384;2023-07-16T13:28:06;35.20;1.00
18779;DHT22;9518;51.720;14.384;2023-07-16T13:30:36;34.50;1.00
18779;DHT22;9518;51.720;14.384;2023-07-16T13:33:04;35.10;1.00
18779;DHT22;9518;51.720;14.384;2023-07-16T13:35:37;35.60;1.00
18779;DHT22;9518;51.720;14.384;2023-07-16T13:38:05;35.80;1.00
18779;DHT22;9518;51.720;14.384;2023-07-16T13:40:33;35.90;1.00
18779;DHT22;9518;51.720;14.384;2023-07-16T13:43:04;35.10;1.00
18779;DHT22;9518;51.720;14.384;2023-07-16T13:45:35;35.30;1.00
18779;DHT22;9518;51.720;14.384;2023-07-16T13:48:02;35.00;99.90
18779;DHT22;9518;51.720;14.384;2023-07-16T13:50:29;35.30;1.00
18779;DHT22;9518;51.720;14.384;2023-07-16T13:52:56;36.30;1.00
18779;DHT22;9518;51.720;14.384;2023-07-16T13:55:27;37.20;1.00
18779;DHT22;9518;51.720;14.384;2023-07-16T13:57:55;37.50;1.00
18779;DHT22;9518;51.720;14.384;2023-07-16T14:00:23;36.40;99.90
18779;DHT22;9518;51.720;14.384;2023-07-16T14:02:51;35.80;99.90
18779;DHT22;9518;51.720;14.384;2023-07-16T14:05:19;35.40;99.90
18779;DHT22;9518;51.720;14.384;2023-07-16T14:07:46;35.60;99.90
18779;DHT22;9518;51.720;14.384;2023-07-16T14:10:15;36.00;99.90
18779;DHT22;9518;51.720;14.384;2023-07-16T14:12:42;36.50;99.90
18779;DHT22;9518;51.720;14.384;2023-07-16T14:15:11;36.60;99.90
18779;DHT22;9518;51.720;14.384;2023-07-16T14:17:38;36.10;99.90
18779;DHT22;9518;51.720;14.384;2023-07-16T14:20:07;35.90;99.90
18779;DHT22;9518;51.720;14.384;2023-07-16T14:22:34;36.70;99.90
18779;DHT22;9518;51.720;14.384;2023-07-16T14:25:01;37.00;99.90
18779;DHT22;9518;51.720;14.384;2023-07-16T14:27:29;36.70;99.90
18779;DHT22;9518;51.720;14.384;2023-07-16T14:29:57;36.00;99.90
18779;DHT22;9518;51.720;14.384;2023-07-16T14:32:26;35.90;99.90
18779;DHT22;9518;51.720;14.384;2023-07-16T14:34:54;35.70;99.90
18779;DHT22;9518;51.720;14.384;2023-07-16T14:37:21;34.90;99.90
18779;DHT22;9518;51.720;14.384;2023-07-16T14:39:48;34.80;99.90
18779;DHT22;9518;51.720;14.384;2023-07-16T14:42:15;34.10;99.90
18779;DHT22;9518;51.720;14.384;2023-07-16T14:44:43;34.10;99.90
18779;DHT22;9518;51.720;14.384;2023-07-16T14:47:10;34.40;99.90
18779;DHT22;9518;51.720;14.384;2023-07-16T14:49:38;34.80;99.90
18779;DHT22;9518;51.720;14.384;2023-07-16T14:52:06;34.50;99.90
18779;DHT22;9518;51.720;14.384;2023-07-16T14:54:33;34.60;99.90
18779;DHT22;9518;51.720;14.384;2023-07-16T14:57:01;35.30;99.90
18779;DHT22;9518;51.720;14.384;2023-07-16T14:59:29;36.40;99.90
18779;DHT22;9518;51.720;14.384;2023-07-16T15:01:58;37.00;99.90
18779;DHT22;9518;51.720;14.384;2023-07-16T15:04:26;37.20;99.90
18779;DHT22;9518;51.720;14.384;2023-07-16T15:06:54;37.80;99.90
18779;DHT22;9518;51.720;14.384;2023-07-16T15:09:21;37.40;99.90
18779;DHT22;9518;51.720;14.384;2023-07-16T15:11:48;38.00;99.90
18779;DHT22;9518;51.720;14.384;2023-07-16T15:14:15;38.60;99.90
18779;DHT22;9518;51.720;14.384;2023-07-16T15:16:42;38.60;99.90
18779;DHT22;9518;51.720;14.384;2023-07-16T15:19:09;38.70;99.90
18779;DHT22;9518;51.720;14.384;2023-07-16T15:21:37;38.70;99.90
18779;DHT22;9518;51.720;14.384;2023-07-16T15:24:06;38.10;99.90
18779;DHT22;9518;51.720;14.384;2023-07-16T15:26:33;38.00;99.90
18779;DHT22;9518;51.720;14.384;2023-07-16T15:29:00;38.30;99.90
18779;DHT22;9518;51.720;14.384;2023-07-16T15:31:27;37.80;99.90
18779;DHT22;9518;51.720;14.384;2023-07-16T15:33:56;37.60;99.90
18779;DHT22;9518;51.720;14.384;2023-07-16T15:36:25;37.40;99.90
18779;DHT22;9518;51.720;14.384;2023-07-16T15:38:52;37.30;99.90
18779;DHT22;9518;51.720;14.384;2023-07-16T15:41:21;37.70;99.90
18779;DHT22;9518;51.720;14.384;2023-07-16T15:43:51;39.10;99.90